sensor_id;sensor_type;location;lat;lon;timestamp;temperature;humidity
5675;DHT22;2860;54.284;10.158;2023-06-10T00:01:12;12.50;99.90
5675;DHT22;2860;54.284;10.158;2023-06-10T00:03:38;12.50;99.90
5675;DHT22;2860;54.284;10.158;2023-06-10T00:06:04;12.50;99.90
5675;DHT22;2860;54.284;10.158;2023-06-10T00:08:30;12.50;99.90
5675;DHT22;2860;54.284;10.158;2023-06-10T00:10:56;12.50;99.90
5675;DHT22;2860;54.284;10.158;2023-06-10T00:13:22;12.50;99.90
5675;DHT22;2860;54.284;10.158;2023-06-10T00:16:00;12.50;99.90
5675;DHT22;2860;54.284;10.158;2023-06-10T00:18:26;12.40;99.90
5675;DHT22;2860;54.284;10.158;2023-06-10T00:20:52;12.40;99.90
5675;DHT22;2860;54.284;10.158;2023-06-10T00:23:20;12.40;99.90
5675;DHT22;2860;54.284;10.158;2023-06-10T00:25:46;12.40;99.90
5675;DHT22;2860;54.284;10.158;2023-06-10T00:28:12;12.40;99.90
5675;DHT22;2860;54.284;10.158;2023-06-10T00:30:37;12.40;99.90
5675;DHT22;2860;54.284;10.158;2023-06-10T00:33:03;12.40;99.90
5675;DHT22;2860;54.284;10.158;2023-06-10T00:35:28;12.40;99.90
5675;DHT22;2860;54.284;10.158;2023-06-10T00:37:54;12.40;99.90
5675;DHT22;2860;54.284;10.158;2023-06-10T00:40:19;12.40;99.90
5675;DHT22;2860;54.284;10.158;2023-06-10T00:42:45;12.30;99.90
5675;DHT22;2860;54.284;10.158;2023-06-10T00:45:10;12.30;99.90
5675;DHT22;2860;54.284;10.158;2023-06-10T00:47:36;12.30;99.90
5675;DHT22;2860;54.284;10.158;2023-06-10T00:50:02;12.30;99.90
5675;DHT22;2860;54.284;10.158;2023-06-10T00:52:29;12.30;99.90
5675;DHT22;2860;54.284;10.158;2023-06-10T00:54:55;12.30;99.90
5675;DHT22;2860;54.284;10.158;2023-06-10T00:57:21;12.30;99.90
5675;DHT22;2860;54.284;10.158;2023-06-10T00:59:48;12.30;99.90
5675;DHT22;2860;54.284;10.158;2023-06-10T01:02:14;12.30;99.90
5675;DHT22;2860;54.284;10.158;2023-06-10T01:04:39;12.30;99.90
5675;DHT22;2860;54.284;10.158;2023-06-10T01:07:28;12.30;99.90
5675;DHT22;2860;54.284;10.158;2023-06-10T01:10:04;12.20;99.90
5675;DHT22;2860;54.284;10.158;2023-06-10T01:12:35;12.20;99.90
5675;DHT22;2860;54.284;10.158;2023-06-10T01:15:02;12.10;99.90
5675;DHT22;2860;54.284;10.158;2023-06-10T01:17:29;12.10;99.90
5675;DHT22;2860;54.284;10.158;2023-06-10T01:19:58;12.10;99.90
5675;DHT22;2860;54.284;10.158;2023-06-10T01:22:25;12.10;99.90
5675;DHT22;2860;54.284;10.158;2023-06-10T01:24:54;12.00;99.90
5675;DHT22;2860;54.284;10.158;2023-06-10T01:27:29;12.00;99.90
5675;DHT22;2860;54.284;10.158;2023-06-10T01:30:01;12.00;99.90
5675;DHT22;2860;54.284;10.158;2023-06-10T01:32:37;12.00;99.90
5675;DHT22;2860;54.284;10.158;2023-06-10T01:35:06;11.90;99.90
5675;DHT22;2860;54.284;10.158;2023-06-10T01:37:33;11.90;99.90
5675;DHT22;2860;54.284;10.158;2023-06-10T01:40:00;11.90;99.90
5675;DHT22;2860;54.284;10.158;2023-06-10T01:42:32;11.90;99.90
5675;DHT22;2860;54.284;10.158;2023-06-10T01:44:58;11.90;99.90
5675;DHT22;2860;54.284;10.158;2023-06-10T01:47:23;11.90;99.90
5675;DHT22;2860;54.284;10.158;2023-06-10T01:49:49;11.90;99.90
5675;DHT22;2860;54.284;10.158;2023-06-10T01:52:15;11.90;99.90
5675;DHT22;2860;54.284;10.158;2023-06-10T01:54:40;11.90;99.90
5675;DHT22;2860;54.284;10.158;2023-06-10T01:57:06;11.90;99.90
5675;DHT22;2860;54.284;10.158;2023-06-10T01:59:32;11.90;99.90
5675;DHT22;2860;54.284;10.158;2023-06-10T02:01:57;11.80;99.90
5675;DHT22;2860;54.284;10.158;2023-06-10T02:04:23;11.80;99.90
5675;DHT22;2860;54.284;10.158;2023-06-10T02:06:48;11.80;99.90
5675;DHT22;2860;54.284;10.158;2023-06-10T02:09:14;11.80;99.90
5675;DHT22;2860;54.284;10.158;2023-06-10T02:11:39;11.80;99.90
5675;DHT22;2860;54.284;10.158;2023-06-10T02:14:05;11.80;99.90
5675;DHT22;2860;54.284;10.158;2023-06-10T02:16:30;11.80;99.90
5675;DHT22;2860;54.284;10.158;2023-06-10T02:18:56;11.80;99.90
5675;DHT22;2860;54.284;10.158;2023-06-10T02:21:23;11.80;99.90
5675;DHT22;2860;54.284;10.158;2023-06-10T02:23:48;11.80;99.90
5675;DHT22;2860;54.284;10.158;2023-06-10T02:26:14;11.80;99.90
5675;DHT22;2860;54.284;10.158;2023-06-10T02:28:43;11.80;99.90
5675;DHT22;2860;54.284;10.158;2023-06-10T02:31:08;11.70;99.90
5675;DHT22;2860;54.284;10.158;2023-06-10T02:33:34;11.70;99.90
5675;DHT22;2860;54.284;10.158;2023-06-10T02:35:59;11.70;99.90
5675;DHT22;2860;54.284;10.158;2023-06-10T02:38:25;11.70;99.90
5675;DHT22;2860;54.284;10.158;2023-06-10T02:40:50;11.80;99.90
5675;DHT22;2860;54.284;10.158;2023-06-10T02:43:16;11.80;99.90
5675;DHT22;2860;54.284;10.158;2023-06-10T02:45:41;11.80;99.90
5675;DHT22;2860;54.284;10.158;2023-06-10T02:48:07;11.70;99.90
5675;DHT22;2860;54.284;10.158;2023-06-10T02:50:32;11.70;99.90
5675;DHT22;2860;54.284;10.158;2023-06-10T02:52:58;11.70;99.90
5675;DHT22;2860;54.284;10.158;2023-06-10T02:55:23;11.80;99.90
5675;DHT22;2860;54.284;10.158;2023-06-10T02:57:51;11.80;99.90
5675;DHT22;2860;54.284;10.158;2023-06-10T03:00:17;11.80;99.90
5675;DHT22;2860;54.284;10.158;2023-06-10T03:02:45;11.80;99.90
5675;DHT22;2860;54.284;10.158;2023-06-10T03:05:11;11.80;99.90
5675;DHT22;2860;54.284;10.158;2023-06-10T03:07:38;11.80;99.90
5675;DHT22;2860;54.284;10.158;2023-06-10T03:10:05;11.90;99.90
5675;DHT22;2860;54.284;10.158;2023-06-10T03:12:31;11.90;99.90
5675;DHT22;2860;54.284;10.158;2023-06-10T03:14:56;11.90;99.90
5675;DHT22;2860;54.284;10.158;2023-06-10T03:17:22;12.00;99.90
5675;DHT22;2860;54.284;10.158;2023-06-10T03:19:47;12.00;99.90
5675;DHT22;2860;54.284;10.158;2023-06-10T03:22:14;12.00;99.90
5675;DHT22;2860;54.284;10.158;2023-06-10T03:24:40;12.00;99.90
5675;DHT22;2860;54.284;10.158;2023-06-10T03:27:10;12.00;99.90
5675;DHT22;2860;54.284;10.158;2023-06-10T03:29:37;12.00;99.90
5675;DHT22;2860;54.284;10.158;2023-06-10T03:32:03;12.00;99.90
5675;DHT22;2860;54.284;10.158;2023-06-10T03:34:28;12.10;99.90
5675;DHT22;2860;54.284;10.158;2023-06-10T03:36:55;12.10;99.90
5675;DHT22;2860;54.284;10.158;2023-06-10T03:39:21;12.10;99.90
5675;DHT22;2860;54.284;10.158;2023-06-10T03:41:46;12.20;99.90
5675;DHT22;2860;54.284;10.158;2023-06-10T03:44:12;12.20;99.90
5675;DHT22;2860;54.284;10.158;2023-06-10T03:46:38;12.20;99.90
5675;DHT22;2860;54.284;10.158;2023-06-10T03:49:03;12.30;99.90
5675;DHT22;2860;54.284;10.158;2023-06-10T03:51:29;12.30;99.90
5675;DHT22;2860;54.284;10.158;2023-06-10T03:53:55;12.40;99.90
5675;DHT22;2860;54.284;10.158;2023-06-10T03:56:20;12.40;99.90
5675;DHT22;2860;54.284;10.158;2023-06-10T03:58:46;12.40;99.90
5675;DHT22;2860;54.284;10.158;2023-06-10T04:01:11;12.50;99.90
5675;DHT22;2860;54.284;10.158;2023-06-10T04:03:38;12.50;99.90
5675;DHT22;2860;54.284;10.158;2023-06-10T04:06:05;12.60;99.90
5675;DHT22;2860;54.284;10.158;2023-06-10T04:08:30;12.60;99.90
5675;DHT22;2860;54.284;10.158;2023-06-10T04:10:56;12.70;99.90
5675;DHT22;2860;54.284;10.158;2023-06-10T04:13:23;12.70;99.90
5675;DHT22;2860;54.284;10.158;2023-06-10T04:15:48;12.80;99.90
5675;DHT22;2860;54.284;10.158;2023-06-10T04:18:14;12.80;99.90
5675;DHT22;2860;54.284;10.158;2023-06-10T04:20:40;12.90;99.90
5675;DHT22;2860;54.284;10.158;2023-06-10T04:23:05;12.90;99.90
5675;DHT22;2860;54.284;10.158;2023-06-10T04:25:31;13.00;99.90
5675;DHT22;2860;54.284;10.158;2023-06-10T04:27:56;13.10;99.90
5675;DHT22;2860;54.284;10.158;2023-06-10T04:30:22;13.10;99.90
5675;DHT22;2860;54.284;10.158;2023-06-10T04:32:48;13.30;99.90
5675;DHT22;2860;54.284;10.158;2023-06-10T04:35:14;13.30;99.90
5675;DHT22;2860;54.284;10.158;2023-06-10T04:37:40;13.40;99.90
5675;DHT22;2860;54.284;10.158;2023-06-10T04:40:07;13.40;99.90
5675;DHT22;2860;54.284;10.158;2023-06-10T04:42:33;13.50;99.90
5675;DHT22;2860;54.284;10.158;2023-06-10T04:44:58;13.60;99.90
5675;DHT22;2860;54.284;10.158;2023-06-10T04:47:24;13.60;99.90
5675;DHT22;2860;54.284;10.158;2023-06-10T04:49:49;13.70;99.90
5675;DHT22;2860;54.284;10.158;2023-06-10T04:52:15;13.70;99.90
5675;DHT22;2860;54.284;10.158;2023-06-10T04:54:40;13.80;99.90
5675;DHT22;2860;54.284;10.158;2023-06-10T04:57:07;14.20;99.90
5675;DHT22;2860;54.284;10.158;2023-06-10T04:59:33;14.90;99.90
5675;DHT22;2860;54.284;10.158;2023-06-10T05:02:03;15.70;99.90
5675;DHT22;2860;54.284;10.158;2023-06-10T05:04:28;16.40;99.90
5675;DHT22;2860;54.284;10.158;2023-06-10T05:06:55;17.30;99.90
5675;DHT22;2860;54.284;10.158;2023-06-10T05:09:20;18.10;99.90
5675;DHT22;2860;54.284;10.158;2023-06-10T05:11:46;18.80;99.90
5675;DHT22;2860;54.284;10.158;2023-06-10T05:14:12;19.10;99.90
5675;DHT22;2860;54.284;10.158;2023-06-10T05:16:38;19.30;99.90
5675;DHT22;2860;54.284;10.158;2023-06-10T05:19:04;19.10;99.90
5675;DHT22;2860;54.284;10.158;2023-06-10T05:21:30;19.10;99.90
5675;DHT22;2860;54.284;10.158;2023-06-10T05:23:55;18.80;99.90
5675;DHT22;2860;54.284;10.158;2023-06-10T05:26:21;18.70;99.90
5675;DHT22;2860;54.284;10.158;2023-06-10T05:28:47;18.60;99.90
5675;DHT22;2860;54.284;10.158;2023-06-10T05:31:12;18.40;99.90
5675;DHT22;2860;54.284;10.158;2023-06-10T05:33:39;18.70;99.90
5675;DHT22;2860;54.284;10.158;2023-06-10T05:36:05;19.00;99.90
5675;DHT22;2860;54.284;10.158;2023-06-10T05:38:30;19.20;99.90
5675;DHT22;2860;54.284;10.158;2023-06-10T05:40:56;19.50;99.90
5675;DHT22;2860;54.284;10.158;2023-06-10T05:43:22;19.80;99.90
5675;DHT22;2860;54.284;10.158;2023-06-10T05:45:47;19.70;99.90
5675;DHT22;2860;54.284;10.158;2023-06-10T05:48:13;20.00;99.90
5675;DHT22;2860;54.284;10.158;2023-06-10T05:50:39;20.10;99.90
5675;DHT22;2860;54.284;10.158;2023-06-10T05:53:08;20.40;99.90
5675;DHT22;2860;54.284;10.158;2023-06-10T05:55:45;20.40;99.90
5675;DHT22;2860;54.284;10.158;2023-06-10T05:58:12;20.00;99.90
5675;DHT22;2860;54.284;10.158;2023-06-10T06:00:38;19.60;99.90
5675;DHT22;2860;54.284;10.158;2023-06-10T06:03:06;19.40;99.90
5675;DHT22;2860;54.284;10.158;2023-06-10T06:05:32;19.20;99.90
5675;DHT22;2860;54.284;10.158;2023-06-10T06:08:01;19.00;99.90
5675;DHT22;2860;54.284;10.158;2023-06-10T06:10:27;19.30;99.90
5675;DHT22;2860;54.284;10.158;2023-06-10T06:12:52;19.60;99.90
5675;DHT22;2860;54.284;10.158;2023-06-10T06:15:18;19.50;99.90
5675;DHT22;2860;54.284;10.158;2023-06-10T06:17:44;19.40;99.90
5675;DHT22;2860;54.284;10.158;2023-06-10T06:20:09;19.50;99.90
5675;DHT22;2860;54.284;10.158;2023-06-10T06:22:35;19.70;99.90
5675;DHT22;2860;54.284;10.158;2023-06-10T06:25:00;19.60;99.90
5675;DHT22;2860;54.284;10.158;2023-06-10T06:27:26;19.40;99.90
5675;DHT22;2860;54.284;10.158;2023-06-10T06:29:51;19.00;99.90
5675;DHT22;2860;54.284;10.158;2023-06-10T06:32:17;18.90;99.90
5675;DHT22;2860;54.284;10.158;2023-06-10T06:34:43;18.80;99.90
5675;DHT22;2860;54.284;10.158;2023-06-10T06:37:08;18.60;99.90
5675;DHT22;2860;54.284;10.158;2023-06-10T06:39:34;18.60;99.90
5675;DHT22;2860;54.284;10.158;2023-06-10T06:41:59;18.90;99.90
5675;DHT22;2860;54.284;10.158;2023-06-10T06:44:25;18.70;99.90
5675;DHT22;2860;54.284;10.158;2023-06-10T06:46:50;18.70;99.90
5675;DHT22;2860;54.284;10.158;2023-06-10T06:49:16;18.70;99.90
5675;DHT22;2860;54.284;10.158;2023-06-10T06:51:41;18.70;99.90
5675;DHT22;2860;54.284;10.158;2023-06-10T06:54:07;18.90;99.90
5675;DHT22;2860;54.284;10.158;2023-06-10T06:56:32;19.10;99.90
5675;DHT22;2860;54.284;10.158;2023-06-10T06:59:00;19.30;99.90
5675;DHT22;2860;54.284;10.158;2023-06-10T07:01:26;19.30;99.90
5675;DHT22;2860;54.284;10.158;2023-06-10T07:03:51;19.30;99.90
5675;DHT22;2860;54.284;10.158;2023-06-10T07:06:17;19.30;99.90
5675;DHT22;2860;54.284;10.158;2023-06-10T07:08:42;19.20;99.90
5675;DHT22;2860;54.284;10.158;2023-06-10T07:11:08;19.10;99.90
5675;DHT22;2860;54.284;10.158;2023-06-10T07:13:33;18.80;99.90
5675;DHT22;2860;54.284;10.158;2023-06-10T07:15:59;18.70;99.90
5675;DHT22;2860;54.284;10.158;2023-06-10T07:18:25;18.80;99.90
5675;DHT22;2860;54.284;10.158;2023-06-10T07:20:50;19.00;99.90
5675;DHT22;2860;54.284;10.158;2023-06-10T07:23:16;19.40;99.90
5675;DHT22;2860;54.284;10.158;2023-06-10T07:25:41;19.80;99.90
5675;DHT22;2860;54.284;10.158;2023-06-10T07:28:07;19.60;99.90
5675;DHT22;2860;54.284;10.158;2023-06-10T07:30:32;19.40;99.90
5675;DHT22;2860;54.284;10.158;2023-06-10T07:32:58;19.30;99.90
5675;DHT22;2860;54.284;10.158;2023-06-10T07:35:23;19.10;99.90
5675;DHT22;2860;54.284;10.158;2023-06-10T07:37:49;19.00;99.90
5675;DHT22;2860;54.284;10.158;2023-06-10T07:40:14;19.00;99.90
5675;DHT22;2860;54.284;10.158;2023-06-10T07:42:40;19.00;99.90
5675;DHT22;2860;54.284;10.158;2023-06-10T07:45:06;19.00;99.90
5675;DHT22;2860;54.284;10.158;2023-06-10T07:47:33;19.10;99.90
5675;DHT22;2860;54.284;10.158;2023-06-10T07:50:02;19.10;99.90
5675;DHT22;2860;54.284;10.158;2023-06-10T07:52:27;19.30;99.90
5675;DHT22;2860;54.284;10.158;2023-06-10T07:54:54;19.40;99.90
5675;DHT22;2860;54.284;10.158;2023-06-10T07:57:19;19.60;99.90
5675;DHT22;2860;54.284;10.158;2023-06-10T07:59:45;19.30;99.90
5675;DHT22;2860;54.284;10.158;2023-06-10T08:02:10;19.20;99.90
5675;DHT22;2860;54.284;10.158;2023-06-10T08:04:36;19.20;99.90
5675;DHT22;2860;54.284;10.158;2023-06-10T08:07:02;19.30;99.90
5675;DHT22;2860;54.284;10.158;2023-06-10T08:09:28;19.50;99.90
5675;DHT22;2860;54.284;10.158;2023-06-10T08:11:54;19.40;99.90
5675;DHT22;2860;54.284;10.158;2023-06-10T08:14:21;19.20;99.90
5675;DHT22;2860;54.284;10.158;2023-06-10T08:16:46;19.30;99.90
5675;DHT22;2860;54.284;10.158;2023-06-10T08:19:12;19.40;99.90
5675;DHT22;2860;54.284;10.158;2023-06-10T08:21:37;19.50;99.90
5675;DHT22;2860;54.284;10.158;2023-06-10T08:24:08;19.60;99.90
5675;DHT22;2860;54.284;10.158;2023-06-10T08:26:34;19.40;99.90
5675;DHT22;2860;54.284;10.158;2023-06-10T08:28:59;19.40;99.90
5675;DHT22;2860;54.284;10.158;2023-06-10T08:31:25;19.30;99.90
5675;DHT22;2860;54.284;10.158;2023-06-10T08:33:50;19.30;99.90
5675;DHT22;2860;54.284;10.158;2023-06-10T08:36:16;19.40;99.90
5675;DHT22;2860;54.284;10.158;2023-06-10T08:38:44;19.70;99.90
5675;DHT22;2860;54.284;10.158;2023-06-10T08:41:12;19.70;99.90
5675;DHT22;2860;54.284;10.158;2023-06-10T08:43:44;19.50;99.90
5675;DHT22;2860;54.284;10.158;2023-06-10T08:46:10;19.50;99.90
5675;DHT22;2860;54.284;10.158;2023-06-10T08:48:42;19.50;99.90
5675;DHT22;2860;54.284;10.158;2023-06-10T08:51:10;19.50;99.90
5675;DHT22;2860;54.284;10.158;2023-06-10T08:53:38;19.40;99.90
5675;DHT22;2860;54.284;10.158;2023-06-10T08:56:06;19.40;99.90
5675;DHT22;2860;54.284;10.158;2023-06-10T08:58:32;19.60;99.90
5675;DHT22;2860;54.284;10.158;2023-06-10T09:01:10;19.80;99.90
5675;DHT22;2860;54.284;10.158;2023-06-10T09:03:37;19.70;99.90
5675;DHT22;2860;54.284;10.158;2023-06-10T09:06:05;19.40;99.90
5675;DHT22;2860;54.284;10.158;2023-06-10T09:08:32;19.10;99.90
5675;DHT22;2860;54.284;10.158;2023-06-10T09:10:58;18.90;99.90
5675;DHT22;2860;54.284;10.158;2023-06-10T09:13:23;18.90;99.90
5675;DHT22;2860;54.284;10.158;2023-06-10T09:15:49;19.20;99.90
5675;DHT22;2860;54.284;10.158;2023-06-10T09:18:16;19.40;99.90
5675;DHT22;2860;54.284;10.158;2023-06-10T09:20:43;19.30;99.90
5675;DHT22;2860;54.284;10.158;2023-06-10T09:23:12;19.40;99.90
5675;DHT22;2860;54.284;10.158;2023-06-10T09:25:38;19.60;99.90
5675;DHT22;2860;54.284;10.158;2023-06-10T09:28:04;19.70;99.90
5675;DHT22;2860;54.284;10.158;2023-06-10T09:30:34;19.80;99.90
5675;DHT22;2860;54.284;10.158;2023-06-10T09:33:02;19.90;99.90
5675;DHT22;2860;54.284;10.158;2023-06-10T09:35:29;20.20;99.90
5675;DHT22;2860;54.284;10.158;2023-06-10T09:37:57;20.40;99.90
5675;DHT22;2860;54.284;10.158;2023-06-10T09:40:23;20.50;99.90
5675;DHT22;2860;54.284;10.158;2023-06-10T09:43:02;20.70;99.90
5675;DHT22;2860;54.284;10.158;2023-06-10T09:45:31;20.70;99.90
5675;DHT22;2860;54.284;10.158;2023-06-10T09:47:57;20.90;99.90
5675;DHT22;2860;54.284;10.158;2023-06-10T09:50:22;21.00;99.90
5675;DHT22;2860;54.284;10.158;2023-06-10T09:52:48;21.10;99.90
5675;DHT22;2860;54.284;10.158;2023-06-10T09:55:17;21.10;99.90
5675;DHT22;2860;54.284;10.158;2023-06-10T09:57:42;21.20;99.90
5675;DHT22;2860;54.284;10.158;2023-06-10T10:00:13;21.20;99.90
5675;DHT22;2860;54.284;10.158;2023-06-10T10:02:46;21.20;99.90
5675;DHT22;2860;54.284;10.158;2023-06-10T10:05:16;21.30;99.90
5675;DHT22;2860;54.284;10.158;2023-06-10T10:07:42;21.40;99.90
5675;DHT22;2860;54.284;10.158;2023-06-10T10:10:08;21.40;99.90
5675;DHT22;2860;54.284;10.158;2023-06-10T10:12:36;21.60;99.90
5675;DHT22;2860;54.284;10.158;2023-06-10T10:15:03;21.80;99.90
5675;DHT22;2860;54.284;10.158;2023-06-10T10:17:31;22.10;99.90
5675;DHT22;2860;54.284;10.158;2023-06-10T10:20:05;22.10;99.90
5675;DHT22;2860;54.284;10.158;2023-06-10T10:22:38;22.10;99.90
5675;DHT22;2860;54.284;10.158;2023-06-10T10:25:28;21.80;99.90
5675;DHT22;2860;54.284;10.158;2023-06-10T10:27:59;22.00;99.90
5675;DHT22;2860;54.284;10.158;2023-06-10T10:30:28;22.00;99.90
5675;DHT22;2860;54.284;10.158;2023-06-10T10:32:58;22.00;99.90
5675;DHT22;2860;54.284;10.158;2023-06-10T10:35:25;22.10;99.90
5675;DHT22;2860;54.284;10.158;2023-06-10T10:37:52;22.00;99.90
5675;DHT22;2860;54.284;10.158;2023-06-10T10:40:20;21.90;99.90
5675;DHT22;2860;54.284;10.158;2023-06-10T10:42:48;22.00;99.90
5675;DHT22;2860;54.284;10.158;2023-06-10T10:45:14;22.10;99.90
5675;DHT22;2860;54.284;10.158;2023-06-10T10:47:41;22.20;99.90
5675;DHT22;2860;54.284;10.158;2023-06-10T10:50:16;22.30;99.90
5675;DHT22;2860;54.284;10.158;2023-06-10T10:53:05;22.60;99.90
5675;DHT22;2860;54.284;10.158;2023-06-10T10:55:31;22.70;99.90
5675;DHT22;2860;54.284;10.158;2023-06-10T10:58:04;22.70;99.90
5675;DHT22;2860;54.284;10.158;2023-06-10T11:00:30;22.70;99.90
5675;DHT22;2860;54.284;10.158;2023-06-10T11:05:45;22.60;99.90
5675;DHT22;2860;54.284;10.158;2023-06-10T11:08:14;22.60;99.90
5675;DHT22;2860;54.284;10.158;2023-06-10T11:10:41;22.60;99.90
5675;DHT22;2860;54.284;10.158;2023-06-10T11:13:18;22.60;99.90
5675;DHT22;2860;54.284;10.158;2023-06-10T11:15:45;22.50;99.90
5675;DHT22;2860;54.284;10.158;2023-06-10T11:31:22;22.70;99.90
5675;DHT22;2860;54.284;10.158;2023-06-10T11:33:58;22.80;99.90
5675;DHT22;2860;54.284;10.158;2023-06-10T11:36:25;22.90;99.90
5675;DHT22;2860;54.284;10.158;2023-06-10T11:38:59;23.00;99.90
5675;DHT22;2860;54.284;10.158;2023-06-10T11:41:25;23.10;99.90
5675;DHT22;2860;54.284;10.158;2023-06-10T11:43:57;23.00;99.90
5675;DHT22;2860;54.284;10.158;2023-06-10T11:46:25;23.00;99.90
5675;DHT22;2860;54.284;10.158;2023-06-10T11:48:55;23.00;99.90
5675;DHT22;2860;54.284;10.158;2023-06-10T11:51:21;23.10;99.90
5675;DHT22;2860;54.284;10.158;2023-06-10T11:53:50;23.00;99.90
5675;DHT22;2860;54.284;10.158;2023-06-10T11:56:22;23.00;99.90
5675;DHT22;2860;54.284;10.158;2023-06-10T11:58:59;22.90;99.90
5675;DHT22;2860;54.284;10.158;2023-06-10T12:01:29;22.90;99.90
5675;DHT22;2860;54.284;10.158;2023-06-10T12:03:59;23.00;99.90
5675;DHT22;2860;54.284;10.158;2023-06-10T12:06:25;23.00;99.90
5675;DHT22;2860;54.284;10.158;2023-06-10T12:08:51;22.90;99.90
5675;DHT22;2860;54.284;10.158;2023-06-10T12:11:17;23.00;99.90
5675;DHT22;2860;54.284;10.158;2023-06-10T12:13:47;23.10;99.90
5675;DHT22;2860;54.284;10.158;2023-06-10T12:16:15;23.00;99.90
5675;DHT22;2860;54.284;10.158;2023-06-10T12:18:43;23.00;99.90
5675;DHT22;2860;54.284;10.158;2023-06-10T12:21:19;23.10;99.90
5675;DHT22;2860;54.284;10.158;2023-06-10T12:24:04;23.00;99.90
5675;DHT22;2860;54.284;10.158;2023-06-10T12:26:38;23.30;99.90
5675;DHT22;2860;54.284;10.158;2023-06-10T12:29:16;23.30;99.90
5675;DHT22;2860;54.284;10.158;2023-06-10T12:32:03;23.40;99.90
5675;DHT22;2860;54.284;10.158;2023-06-10T12:34:38;23.20;99.90
5675;DHT22;2860;54.284;10.158;2023-06-10T12:37:12;23.20;99.90
5675;DHT22;2860;54.284;10.158;2023-06-10T12:39:41;23.20;99.90
5675;DHT22;2860;54.284;10.158;2023-06-10T12:42:08;23.10;99.90
5675;DHT22;2860;54.284;10.158;2023-06-10T12:44:39;23.10;99.90
5675;DHT22;2860;54.284;10.158;2023-06-10T12:47:11;23.20;99.90
5675;DHT22;2860;54.284;10.158;2023-06-10T12:49:39;23.00;99.90
5675;DHT22;2860;54.284;10.158;2023-06-10T12:52:05;23.00;99.90
5675;DHT22;2860;54.284;10.158;2023-06-10T12:54:31;23.00;99.90
5675;DHT22;2860;54.284;10.158;2023-06-10T12:56:57;23.00;99.90
5675;DHT22;2860;54.284;10.158;2023-06-10T12:59:23;23.20;99.90
5675;DHT22;2860;54.284;10.158;2023-06-10T13:01:52;23.20;99.90
5675;DHT22;2860;54.284;10.158;2023-06-10T13:04:18;23.10;99.90
5675;DHT22;2860;54.284;10.158;2023-06-10T13:06:45;23.10;99.90
5675;DHT22;2860;54.284;10.158;2023-06-10T13:09:14;23.00;99.90
5675;DHT22;2860;54.284;10.158;2023-06-10T13:11:40;23.00;99.90
5675;DHT22;2860;54.284;10.158;2023-06-10T13:14:07;22.90;99.90
5675;DHT22;2860;54.284;10.158;2023-06-10T13:16:33;22.80;99.90
5675;DHT22;2860;54.284;10.158;2023-06-10T13:18:59;22.80;99.90
5675;DHT22;2860;54.284;10.158;2023-06-10T13:21:28;22.70;99.90
5675;DHT22;2860;54.284;10.158;2023-06-10T13:23:54;22.80;99.90
5675;DHT22;2860;54.284;10.158;2023-06-10T13:26:19;22.90;99.90
5675;DHT22;2860;54.284;10.158;2023-06-10T13:28:45;23.00;99.90
5675;DHT22;2860;54.284;10.158;2023-06-10T13:31:11;22.90;99.90
5675;DHT22;2860;54.284;10.158;2023-06-10T13:33:40;22.90;99.90
5675;DHT22;2860;54.284;10.158;2023-06-10T13:36:08;22.90;99.90
5675;DHT22;2860;54.284;10.158;2023-06-10T13:38:34;22.90;99.90
5675;DHT22;2860;54.284;10.158;2023-06-10T13:41:00;23.00;99.90
5675;DHT22;2860;54.284;10.158;2023-06-10T13:43:26;23.00;99.90
5675;DHT22;2860;54.284;10.158;2023-06-10T13:45:51;23.10;99.90
5675;DHT22;2860;54.284;10.158;2023-06-10T13:48:17;23.00;99.90
5675;DHT22;2860;54.284;10.158;2023-06-10T13:50:43;23.00;99.90
5675;DHT22;2860;54.284;10.158;2023-06-10T13:53:11;23.00;99.90
5675;DHT22;2860;54.284;10.158;2023-06-10T13:55:37;23.00;99.90
5675;DHT22;2860;54.284;10.158;2023-06-10T13:58:02;23.00;99.90
5675;DHT22;2860;54.284;10.158;2023-06-10T14:00:28;23.20;99.90
5675;DHT22;2860;54.284;10.158;2023-06-10T14:02:54;23.40;99.90
5675;DHT22;2860;54.284;10.158;2023-06-10T14:05:19;23.40;99.90
5675;DHT22;2860;54.284;10.158;2023-06-10T14:07:45;23.40;99.90
5675;DHT22;2860;54.284;10.158;2023-06-10T14:10:11;23.30;99.90
5675;DHT22;2860;54.284;10.158;2023-06-10T14:12:36;23.30;99.90
5675;DHT22;2860;54.284;10.158;2023-06-10T14:15:02;23.40;99.90
5675;DHT22;2860;54.284;10.158;2023-06-10T14:17:28;23.30;99.90
5675;DHT22;2860;54.284;10.158;2023-06-10T14:19:53;23.10;99.90
5675;DHT22;2860;54.284;10.158;2023-06-10T14:22:19;23.00;99.90
5675;DHT22;2860;54.284;10.158;2023-06-10T14:24:44;23.10;99.90
5675;DHT22;2860;54.284;10.158;2023-06-10T14:27:10;23.20;99.90
5675;DHT22;2860;54.284;10.158;2023-06-10T14:29:35;23.10;99.90
5675;DHT22;2860;54.284;10.158;2023-06-10T14:32:01;23.30;99.90
5675;DHT22;2860;54.284;10.158;2023-06-10T14:34:27;23.40;99.90
5675;DHT22;2860;54.284;10.158;2023-06-10T14:36:59;23.40;99.90
5675;DHT22;2860;54.284;10.158;2023-06-10T14:39:25;23.50;99.90
5675;DHT22;2860;54.284;10.158;2023-06-10T14:41:51;23.70;99.90
5675;DHT22;2860;54.284;10.158;2023-06-10T14:44:18;23.80;99.90
5675;DHT22;2860;54.284;10.158;2023-06-10T14:46:43;23.90;99.90
5675;DHT22;2860;54.284;10.158;2023-06-10T14:49:09;23.80;99.90
5675;DHT22;2860;54.284;10.158;2023-06-10T14:51:34;23.80;99.90
5675;DHT22;2860;54.284;10.158;2023-06-10T14:54:00;23.60;99.90
5675;DHT22;2860;54.284;10.158;2023-06-10T14:56:26;23.60;99.90
5675;DHT22;2860;54.284;10.158;2023-06-10T14:58:51;23.60;99.90
5675;DHT22;2860;54.284;10.158;2023-06-10T15:01:17;23.60;99.90
5675;DHT22;2860;54.284;10.158;2023-06-10T15:03:44;23.50;99.90
5675;DHT22;2860;54.284;10.158;2023-06-10T15:06:10;23.50;99.90
5675;DHT22;2860;54.284;10.158;2023-06-10T15:08:35;23.40;99.90
5675;DHT22;2860;54.284;10.158;2023-06-10T15:11:01;23.40;99.90
5675;DHT22;2860;54.284;10.158;2023-06-10T15:13:27;23.50;99.90
5675;DHT22;2860;54.284;10.158;2023-06-10T15:15:56;23.60;99.90
5675;DHT22;2860;54.284;10.158;2023-06-10T15:18:22;23.70;99.90
5675;DHT22;2860;54.284;10.158;2023-06-10T15:20:47;23.70;99.90
5675;DHT22;2860;54.284;10.158;2023-06-10T15:23:13;23.70;99.90
5675;DHT22;2860;54.284;10.158;2023-06-10T15:25:38;23.90;99.90
5675;DHT22;2860;54.284;10.158;2023-06-10T15:28:06;24.00;99.90
5675;DHT22;2860;54.284;10.158;2023-06-10T15:30:31;24.00;99.90
5675;DHT22;2860;54.284;10.158;2023-06-10T15:32:57;24.10;99.90
5675;DHT22;2860;54.284;10.158;2023-06-10T15:35:23;24.00;99.90
5675;DHT22;2860;54.284;10.158;2023-06-10T15:37:48;23.90;99.90
5675;DHT22;2860;54.284;10.158;2023-06-10T15:40:14;24.00;99.90
5675;DHT22;2860;54.284;10.158;2023-06-10T15:42:39;23.80;99.90
5675;DHT22;2860;54.284;10.158;2023-06-10T15:45:05;23.60;99.90
5675;DHT22;2860;54.284;10.158;2023-06-10T15:47:31;23.50;99.90
5675;DHT22;2860;54.284;10.158;2023-06-10T15:49:56;23.40;99.90
5675;DHT22;2860;54.284;10.158;2023-06-10T15:52:22;23.30;99.90
5675;DHT22;2860;54.284;10.158;2023-06-10T15:54:47;23.20;99.90
5675;DHT22;2860;54.284;10.158;2023-06-10T15:57:13;23.20;99.90
5675;DHT22;2860;54.284;10.158;2023-06-10T15:59:39;23.00;99.90